sensor_id;sensor_type;location;lat;lon;timestamp;P1;durP1;ratioP1;P2;durP2;ratioP2
39370;SDS011;25099;51.946;4.838;2022-11-25T00:01:16;11.27;;;3.20;;
39370;SDS011;25099;51.946;4.838;2022-11-25T00:03:43;18.83;;;3.53;;
39370;SDS011;25099;51.946;4.838;2022-11-25T00:06:20;19.10;;;3.60;;
39370;SDS011;25099;51.946;4.838;2022-11-25T00:08:52;16.10;;;4.28;;
39370;SDS011;25099;51.946;4.838;2022-11-25T00:11:20;13.63;;;3.05;;
39370;SDS011;25099;51.946;4.838;2022-11-25T00:13:46;14.77;;;3.42;;
39370;SDS011;25099;51.946;4.838;2022-11-25T00:16:16;19.50;;;3.90;;
39370;SDS011;25099;51.946;4.838;2022-11-25T00:18:47;16.00;;;3.47;;
39370;SDS011;25099;51.946;4.838;2022-11-25T00:21:27;23.48;;;4.05;;
39370;SDS011;25099;51.946;4.838;2022-11-25T00:23:57;17.58;;;3.30;;
39370;SDS011;25099;51.946;4.838;2022-11-25T00:26:25;16.25;;;3.97;;
39370;SDS011;25099;51.946;4.838;2022-11-25T00:28:52;15.45;;;3.42;;
39370;SDS011;25099;51.946;4.838;2022-11-25T00:33:45;13.70;;;3.47;;
39370;SDS011;25099;51.946;4.838;2022-11-25T00:36:15;19.85;;;3.55;;
39370;SDS011;25099;51.946;4.838;2022-11-25T00:38:43;16.27;;;3.80;;
39370;SDS011;25099;51.946;4.838;2022-11-25T00:41:09;13.98;;;3.13;;
39370;SDS011;25099;51.946;4.838;2022-11-25T00:43:53;19.65;;;3.75;;
39370;SDS011;25099;51.946;4.838;2022-11-25T00:46:38;22.40;;;3.55;;
39370;SDS011;25099;51.946;4.838;2022-11-25T00:49:04;14.45;;;3.63;;
39370;SDS011;25099;51.946;4.838;2022-11-25T00:51:29;15.25;;;3.42;;
39370;SDS011;25099;51.946;4.838;2022-11-25T00:53:55;11.88;;;3.70;;
39370;SDS011;25099;51.946;4.838;2022-11-25T00:56:20;15.63;;;3.33;;
39370;SDS011;25099;51.946;4.838;2022-11-25T00:58:47;19.65;;;3.88;;
39370;SDS011;25099;51.946;4.838;2022-11-25T01:01:13;9.18;;;3.20;;
39370;SDS011;25099;51.946;4.838;2022-11-25T01:03:39;25.40;;;4.95;;
39370;SDS011;25099;51.946;4.838;2022-11-25T01:06:06;18.05;;;3.75;;
39370;SDS011;25099;51.946;4.838;2022-11-25T01:08:36;20.42;;;3.95;;
39370;SDS011;25099;51.946;4.838;2022-11-25T01:11:03;23.48;;;3.88;;
39370;SDS011;25099;51.946;4.838;2022-11-25T01:13:31;17.00;;;3.33;;
39370;SDS011;25099;51.946;4.838;2022-11-25T01:15:59;22.33;;;5.55;;
39370;SDS011;25099;51.946;4.838;2022-11-25T01:18:29;19.13;;;3.60;;
39370;SDS011;25099;51.946;4.838;2022-11-25T01:21:05;23.73;;;3.58;;
39370;SDS011;25099;51.946;4.838;2022-11-25T01:23:31;18.33;;;3.22;;
39370;SDS011;25099;51.946;4.838;2022-11-25T01:25:59;16.23;;;3.55;;
39370;SDS011;25099;51.946;4.838;2022-11-25T01:28:26;20.55;;;4.47;;
39370;SDS011;25099;51.946;4.838;2022-11-25T01:31:01;19.95;;;4.05;;
39370;SDS011;25099;51.946;4.838;2022-11-25T01:33:29;24.63;;;4.47;;
39370;SDS011;25099;51.946;4.838;2022-11-25T01:36:08;32.63;;;4.63;;
39370;SDS011;25099;51.946;4.838;2022-11-25T01:38:36;22.80;;;4.18;;
39370;SDS011;25099;51.946;4.838;2022-11-25T01:41:02;13.65;;;3.65;;
39370;SDS011;25099;51.946;4.838;2022-11-25T01:43:28;27.95;;;5.03;;
39370;SDS011;25099;51.946;4.838;2022-11-25T01:48:27;21.95;;;5.13;;
39370;SDS011;25099;51.946;4.838;2022-11-25T01:51:01;22.33;;;3.83;;
39370;SDS011;25099;51.946;4.838;2022-11-25T01:53:27;22.17;;;3.70;;
39370;SDS011;25099;51.946;4.838;2022-11-25T01:55:54;21.95;;;4.35;;
39370;SDS011;25099;51.946;4.838;2022-11-25T01:58:25;19.15;;;4.18;;
39370;SDS011;25099;51.946;4.838;2022-11-25T02:00:54;17.08;;;3.85;;
39370;SDS011;25099;51.946;4.838;2022-11-25T02:03:21;26.45;;;4.50;;
39370;SDS011;25099;51.946;4.838;2022-11-25T02:05:55;19.17;;;3.67;;
39370;SDS011;25099;51.946;4.838;2022-11-25T02:08:27;14.80;;;3.75;;
39370;SDS011;25099;51.946;4.838;2022-11-25T02:10:54;18.95;;;4.28;;
39370;SDS011;25099;51.946;4.838;2022-11-25T02:13:21;22.27;;;4.43;;
39370;SDS011;25099;51.946;4.838;2022-11-25T02:15:48;18.58;;;4.10;;
39370;SDS011;25099;51.946;4.838;2022-11-25T02:18:14;28.55;;;4.68;;
39370;SDS011;25099;51.946;4.838;2022-11-25T02:20:40;24.02;;;5.63;;
39370;SDS011;25099;51.946;4.838;2022-11-25T02:25:50;17.30;;;3.63;;
39370;SDS011;25099;51.946;4.838;2022-11-25T02:28:18;17.60;;;4.63;;
39370;SDS011;25099;51.946;4.838;2022-11-25T02:30:49;17.48;;;4.03;;
39370;SDS011;25099;51.946;4.838;2022-11-25T02:33:15;19.23;;;4.57;;
39370;SDS011;25099;51.946;4.838;2022-11-25T02:35:42;21.75;;;4.45;;
39370;SDS011;25099;51.946;4.838;2022-11-25T02:38:14;12.15;;;3.47;;
39370;SDS011;25099;51.946;4.838;2022-11-25T02:40:45;20.25;;;4.25;;
39370;SDS011;25099;51.946;4.838;2022-11-25T02:43:14;14.05;;;3.53;;
39370;SDS011;25099;51.946;4.838;2022-11-25T02:45:46;15.18;;;4.47;;
39370;SDS011;25099;51.946;4.838;2022-11-25T02:48:16;12.95;;;3.70;;
39370;SDS011;25099;51.946;4.838;2022-11-25T02:50:42;14.65;;;3.70;;
39370;SDS011;25099;51.946;4.838;2022-11-25T02:53:08;16.15;;;3.40;;
39370;SDS011;25099;51.946;4.838;2022-11-25T02:55:33;20.83;;;3.40;;
39370;SDS011;25099;51.946;4.838;2022-11-25T02:57:59;11.63;;;3.08;;
39370;SDS011;25099;51.946;4.838;2022-11-25T03:00:24;9.32;;;2.75;;
39370;SDS011;25099;51.946;4.838;2022-11-25T03:02:51;9.70;;;3.05;;
39370;SDS011;25099;51.946;4.838;2022-11-25T03:05:18;8.75;;;2.45;;
39370;SDS011;25099;51.946;4.838;2022-11-25T03:07:45;12.93;;;2.80;;
39370;SDS011;25099;51.946;4.838;2022-11-25T03:10:10;16.10;;;3.03;;
39370;SDS011;25099;51.946;4.838;2022-11-25T03:12:36;11.32;;;2.80;;
39370;SDS011;25099;51.946;4.838;2022-11-25T03:15:02;9.90;;;2.50;;
39370;SDS011;25099;51.946;4.838;2022-11-25T03:17:28;17.98;;;2.58;;
39370;SDS011;25099;51.946;4.838;2022-11-25T03:19:53;8.25;;;2.28;;
39370;SDS011;25099;51.946;4.838;2022-11-25T03:22:19;7.47;;;1.92;;
39370;SDS011;25099;51.946;4.838;2022-11-25T03:24:44;14.57;;;3.13;;
39370;SDS011;25099;51.946;4.838;2022-11-25T03:27:10;9.98;;;2.50;;
39370;SDS011;25099;51.946;4.838;2022-11-25T03:29:35;8.88;;;2.30;;
39370;SDS011;25099;51.946;4.838;2022-11-25T03:32:01;8.55;;;2.30;;
39370;SDS011;25099;51.946;4.838;2022-11-25T03:34:26;9.25;;;2.15;;
39370;SDS011;25099;51.946;4.838;2022-11-25T03:36:52;6.22;;;1.95;;
39370;SDS011;25099;51.946;4.838;2022-11-25T03:39:17;7.60;;;1.77;;
39370;SDS011;25099;51.946;4.838;2022-11-25T03:41:43;5.13;;;1.67;;
39370;SDS011;25099;51.946;4.838;2022-11-25T03:44:08;4.93;;;1.67;;
39370;SDS011;25099;51.946;4.838;2022-11-25T03:46:34;4.43;;;1.52;;
39370;SDS011;25099;51.946;4.838;2022-11-25T03:48:59;3.20;;;1.50;;
39370;SDS011;25099;51.946;4.838;2022-11-25T03:51:25;8.75;;;2.00;;
39370;SDS011;25099;51.946;4.838;2022-11-25T03:53:50;8.60;;;1.67;;
39370;SDS011;25099;51.946;4.838;2022-11-25T03:56:18;7.63;;;1.67;;
39370;SDS011;25099;51.946;4.838;2022-11-25T03:58:44;4.40;;;1.48;;
39370;SDS011;25099;51.946;4.838;2022-11-25T04:01:10;8.18;;;2.03;;
39370;SDS011;25099;51.946;4.838;2022-11-25T04:03:35;8.10;;;1.83;;
39370;SDS011;25099;51.946;4.838;2022-11-25T04:06:01;5.75;;;1.98;;
39370;SDS011;25099;51.946;4.838;2022-11-25T04:08:26;8.13;;;1.75;;
39370;SDS011;25099;51.946;4.838;2022-11-25T04:10:52;5.63;;;1.85;;
39370;SDS011;25099;51.946;4.838;2022-11-25T04:13:20;6.30;;;2.08;;
39370;SDS011;25099;51.946;4.838;2022-11-25T04:15:46;9.00;;;2.55;;
39370;SDS011;25099;51.946;4.838;2022-11-25T04:18:14;7.50;;;2.20;;
39370;SDS011;25099;51.946;4.838;2022-11-25T04:20:40;9.00;;;2.05;;
39370;SDS011;25099;51.946;4.838;2022-11-25T04:23:05;10.90;;;2.78;;
39370;SDS011;25099;51.946;4.838;2022-11-25T04:25:32;5.80;;;2.22;;
39370;SDS011;25099;51.946;4.838;2022-11-25T04:27:59;5.07;;;2.42;;
39370;SDS011;25099;51.946;4.838;2022-11-25T04:30:24;6.07;;;1.77;;
39370;SDS011;25099;51.946;4.838;2022-11-25T04:32:50;5.45;;;2.00;;
39370;SDS011;25099;51.946;4.838;2022-11-25T04:35:15;4.40;;;1.58;;
39370;SDS011;25099;51.946;4.838;2022-11-25T04:37:41;6.38;;;2.22;;
39370;SDS011;25099;51.946;4.838;2022-11-25T04:40:06;4.10;;;1.70;;
39370;SDS011;25099;51.946;4.838;2022-11-25T04:42:33;8.23;;;1.50;;
39370;SDS011;25099;51.946;4.838;2022-11-25T04:45:01;5.25;;;1.77;;
39370;SDS011;25099;51.946;4.838;2022-11-25T04:47:29;2.15;;;1.23;;
39370;SDS011;25099;51.946;4.838;2022-11-25T04:49:55;6.72;;;1.83;;
39370;SDS011;25099;51.946;4.838;2022-11-25T04:52:21;2.25;;;1.40;;
39370;SDS011;25099;51.946;4.838;2022-11-25T04:54:47;6.43;;;1.80;;
39370;SDS011;25099;51.946;4.838;2022-11-25T04:57:13;4.22;;;1.60;;
39370;SDS011;25099;51.946;4.838;2022-11-25T04:59:40;6.05;;;1.35;;
39370;SDS011;25099;51.946;4.838;2022-11-25T05:04:46;8.68;;;1.75;;
39370;SDS011;25099;51.946;4.838;2022-11-25T05:07:13;7.10;;;1.80;;
39370;SDS011;25099;51.946;4.838;2022-11-25T05:09:40;3.50;;;1.60;;
39370;SDS011;25099;51.946;4.838;2022-11-25T05:12:07;5.32;;;1.33;;
39370;SDS011;25099;51.946;4.838;2022-11-25T05:14:35;2.50;;;1.60;;
39370;SDS011;25099;51.946;4.838;2022-11-25T05:17:01;4.00;;;2.05;;
39370;SDS011;25099;51.946;4.838;2022-11-25T05:19:27;5.72;;;1.95;;
39370;SDS011;25099;51.946;4.838;2022-11-25T05:21:53;4.25;;;1.77;;
39370;SDS011;25099;51.946;4.838;2022-11-25T05:24:18;8.30;;;1.80;;
39370;SDS011;25099;51.946;4.838;2022-11-25T05:26:45;7.97;;;2.20;;
39370;SDS011;25099;51.946;4.838;2022-11-25T05:29:11;4.35;;;2.25;;
39370;SDS011;25099;51.946;4.838;2022-11-25T05:31:36;4.90;;;2.22;;
39370;SDS011;25099;51.946;4.838;2022-11-25T05:34:02;3.95;;;1.92;;
39370;SDS011;25099;51.946;4.838;2022-11-25T05:36:28;3.83;;;2.65;;
39370;SDS011;25099;51.946;4.838;2022-11-25T05:38:57;7.00;;;2.13;;
39370;SDS011;25099;51.946;4.838;2022-11-25T05:41:23;8.98;;;3.10;;
39370;SDS011;25099;51.946;4.838;2022-11-25T05:43:49;7.25;;;2.45;;
39370;SDS011;25099;51.946;4.838;2022-11-25T05:46:15;7.82;;;2.47;;
39370;SDS011;25099;51.946;4.838;2022-11-25T05:48:41;7.25;;;2.33;;
39370;SDS011;25099;51.946;4.838;2022-11-25T05:51:06;8.13;;;2.80;;
39370;SDS011;25099;51.946;4.838;2022-11-25T05:53:33;6.28;;;2.83;;
39370;SDS011;25099;51.946;4.838;2022-11-25T05:56:00;5.68;;;3.08;;
39370;SDS011;25099;51.946;4.838;2022-11-25T05:58:29;5.75;;;2.22;;
39370;SDS011;25099;51.946;4.838;2022-11-25T06:00:56;5.20;;;2.65;;
39370;SDS011;25099;51.946;4.838;2022-11-25T06:03:22;9.55;;;2.95;;
39370;SDS011;25099;51.946;4.838;2022-11-25T06:05:54;9.65;;;3.63;;
39370;SDS011;25099;51.946;4.838;2022-11-25T06:08:21;5.53;;;2.78;;
39370;SDS011;25099;51.946;4.838;2022-11-25T06:10:46;9.52;;;3.00;;
39370;SDS011;25099;51.946;4.838;2022-11-25T06:13:13;4.30;;;2.75;;
39370;SDS011;25099;51.946;4.838;2022-11-25T06:15:39;6.93;;;2.90;;
39370;SDS011;25099;51.946;4.838;2022-11-25T06:18:07;8.90;;;3.30;;
39370;SDS011;25099;51.946;4.838;2022-11-25T06:20:33;7.72;;;3.28;;
39370;SDS011;25099;51.946;4.838;2022-11-25T06:22:58;10.23;;;3.00;;
39370;SDS011;25099;51.946;4.838;2022-11-25T06:25:24;10.40;;;3.97;;
39370;SDS011;25099;51.946;4.838;2022-11-25T06:27:50;13.30;;;3.58;;
39370;SDS011;25099;51.946;4.838;2022-11-25T06:30:16;9.43;;;3.25;;
39370;SDS011;25099;51.946;4.838;2022-11-25T06:32:43;11.30;;;3.17;;
39370;SDS011;25099;51.946;4.838;2022-11-25T06:35:08;6.88;;;3.53;;
39370;SDS011;25099;51.946;4.838;2022-11-25T06:37:35;7.00;;;3.45;;
39370;SDS011;25099;51.946;4.838;2022-11-25T06:40:00;6.32;;;3.30;;
39370;SDS011;25099;51.946;4.838;2022-11-25T06:42:27;9.52;;;3.45;;
39370;SDS011;25099;51.946;4.838;2022-11-25T06:44:52;10.52;;;3.30;;
39370;SDS011;25099;51.946;4.838;2022-11-25T06:47:18;14.77;;;3.88;;
39370;SDS011;25099;51.946;4.838;2022-11-25T06:49:43;6.82;;;3.80;;
39370;SDS011;25099;51.946;4.838;2022-11-25T06:52:09;12.05;;;4.43;;
39370;SDS011;25099;51.946;4.838;2022-11-25T06:54:34;10.55;;;3.85;;
39370;SDS011;25099;51.946;4.838;2022-11-25T06:57:05;7.95;;;4.13;;
39370;SDS011;25099;51.946;4.838;2022-11-25T06:59:34;8.52;;;3.70;;
39370;SDS011;25099;51.946;4.838;2022-11-25T07:02:00;12.93;;;4.35;;
39370;SDS011;25099;51.946;4.838;2022-11-25T07:04:25;5.90;;;4.45;;
39370;SDS011;25099;51.946;4.838;2022-11-25T07:06:51;11.82;;;4.78;;
39370;SDS011;25099;51.946;4.838;2022-11-25T07:09:16;11.07;;;4.45;;
39370;SDS011;25099;51.946;4.838;2022-11-25T07:11:43;8.05;;;4.10;;
39370;SDS011;25099;51.946;4.838;2022-11-25T07:14:13;15.93;;;5.75;;
39370;SDS011;25099;51.946;4.838;2022-11-25T07:16:41;10.77;;;4.80;;
39370;SDS011;25099;51.946;4.838;2022-11-25T07:19:09;14.35;;;5.10;;
39370;SDS011;25099;51.946;4.838;2022-11-25T07:21:35;12.15;;;4.97;;
39370;SDS011;25099;51.946;4.838;2022-11-25T07:24:02;10.35;;;4.55;;
39370;SDS011;25099;51.946;4.838;2022-11-25T07:26:30;11.30;;;4.75;;
39370;SDS011;25099;51.946;4.838;2022-11-25T07:28:58;11.52;;;4.93;;
39370;SDS011;25099;51.946;4.838;2022-11-25T07:31:27;6.60;;;4.25;;
39370;SDS011;25099;51.946;4.838;2022-11-25T07:36:39;13.02;;;5.05;;
39370;SDS011;25099;51.946;4.838;2022-11-25T07:39:07;11.80;;;5.45;;
39370;SDS011;25099;51.946;4.838;2022-11-25T07:44:03;11.63;;;4.32;;
39370;SDS011;25099;51.946;4.838;2022-11-25T07:46:33;10.45;;;5.43;;
39370;SDS011;25099;51.946;4.838;2022-11-25T07:49:05;13.98;;;4.65;;
39370;SDS011;25099;51.946;4.838;2022-11-25T07:51:36;11.45;;;4.78;;
39370;SDS011;25099;51.946;4.838;2022-11-25T07:54:04;9.27;;;4.53;;
39370;SDS011;25099;51.946;4.838;2022-11-25T07:56:32;11.93;;;4.65;;
39370;SDS011;25099;51.946;4.838;2022-11-25T07:58:59;8.45;;;4.35;;
39370;SDS011;25099;51.946;4.838;2022-11-25T08:01:25;11.55;;;3.95;;
39370;SDS011;25099;51.946;4.838;2022-11-25T08:03:51;12.88;;;4.85;;
39370;SDS011;25099;51.946;4.838;2022-11-25T08:06:18;8.73;;;4.72;;
39370;SDS011;25099;51.946;4.838;2022-11-25T08:08:55;7.80;;;4.38;;
39370;SDS011;25099;51.946;4.838;2022-11-25T08:11:22;16.85;;;4.95;;
39370;SDS011;25099;51.946;4.838;2022-11-25T08:13:49;11.55;;;4.30;;
39370;SDS011;25099;51.946;4.838;2022-11-25T08:16:16;11.68;;;4.00;;
39370;SDS011;25099;51.946;4.838;2022-11-25T08:18:43;10.23;;;4.20;;
39370;SDS011;25099;51.946;4.838;2022-11-25T08:21:09;7.80;;;4.03;;
39370;SDS011;25099;51.946;4.838;2022-11-25T08:23:37;8.25;;;3.30;;
39370;SDS011;25099;51.946;4.838;2022-11-25T08:26:08;6.75;;;3.40;;
39370;SDS011;25099;51.946;4.838;2022-11-25T08:28:35;10.38;;;3.30;;
39370;SDS011;25099;51.946;4.838;2022-11-25T08:31:03;10.95;;;4.50;;
39370;SDS011;25099;51.946;4.838;2022-11-25T08:33:37;13.00;;;3.88;;
39370;SDS011;25099;51.946;4.838;2022-11-25T08:36:04;8.48;;;3.50;;
39370;SDS011;25099;51.946;4.838;2022-11-25T08:38:30;13.98;;;4.07;;
39370;SDS011;25099;51.946;4.838;2022-11-25T08:40:56;7.70;;;3.42;;
39370;SDS011;25099;51.946;4.838;2022-11-25T08:43:22;10.02;;;2.90;;
39370;SDS011;25099;51.946;4.838;2022-11-25T08:45:48;9.35;;;3.50;;
39370;SDS011;25099;51.946;4.838;2022-11-25T08:48:15;4.95;;;2.60;;
39370;SDS011;25099;51.946;4.838;2022-11-25T08:50:47;8.70;;;2.97;;
39370;SDS011;25099;51.946;4.838;2022-11-25T08:53:14;9.18;;;3.25;;
39370;SDS011;25099;51.946;4.838;2022-11-25T08:55:40;12.60;;;3.40;;
39370;SDS011;25099;51.946;4.838;2022-11-25T08:58:06;10.52;;;3.03;;
39370;SDS011;25099;51.946;4.838;2022-11-25T09:00:35;9.55;;;3.30;;
39370;SDS011;25099;51.946;4.838;2022-11-25T09:03:02;8.35;;;3.50;;
39370;SDS011;25099;51.946;4.838;2022-11-25T09:05:28;5.50;;;2.78;;
39370;SDS011;25099;51.946;4.838;2022-11-25T09:07:59;8.07;;;3.20;;
39370;SDS011;25099;51.946;4.838;2022-11-25T09:10:26;11.20;;;3.80;;
39370;SDS011;25099;51.946;4.838;2022-11-25T09:12:51;9.20;;;3.55;;
39370;SDS011;25099;51.946;4.838;2022-11-25T09:15:17;9.13;;;3.20;;
39370;SDS011;25099;51.946;4.838;2022-11-25T09:17:42;13.07;;;3.58;;
39370;SDS011;25099;51.946;4.838;2022-11-25T09:20:08;10.80;;;3.40;;
39370;SDS011;25099;51.946;4.838;2022-11-25T09:22:34;7.88;;;3.30;;
39370;SDS011;25099;51.946;4.838;2022-11-25T09:25:00;8.65;;;3.60;;
39370;SDS011;25099;51.946;4.838;2022-11-25T09:27:26;10.13;;;3.75;;
39370;SDS011;25099;51.946;4.838;2022-11-25T09:29:51;8.85;;;3.53;;
39370;SDS011;25099;51.946;4.838;2022-11-25T09:32:17;11.32;;;3.88;;
39370;SDS011;25099;51.946;4.838;2022-11-25T09:34:42;15.02;;;4.15;;
39370;SDS011;25099;51.946;4.838;2022-11-25T09:37:10;8.80;;;3.83;;
39370;SDS011;25099;51.946;4.838;2022-11-25T09:39:35;8.82;;;4.13;;
39370;SDS011;25099;51.946;4.838;2022-11-25T09:45:13;11.50;;;4.43;;
39370;SDS011;25099;51.946;4.838;2022-11-25T09:48:27;10.75;;;4.18;;
39370;SDS011;25099;51.946;4.838;2022-11-25T09:51:23;15.50;;;5.90;;
39370;SDS011;25099;51.946;4.838;2022-11-25T09:54:18;13.57;;;4.85;;
39370;SDS011;25099;51.946;4.838;2022-11-25T09:56:52;13.95;;;6.07;;
39370;SDS011;25099;51.946;4.838;2022-11-25T09:59:27;10.80;;;5.32;;
39370;SDS011;25099;51.946;4.838;2022-11-25T10:02:01;19.20;;;5.97;;
39370;SDS011;25099;51.946;4.838;2022-11-25T10:04:37;16.48;;;6.50;;
39370;SDS011;25099;51.946;4.838;2022-11-25T10:07:10;15.25;;;6.45;;
39370;SDS011;25099;51.946;4.838;2022-11-25T10:09:45;11.93;;;5.22;;
39370;SDS011;25099;51.946;4.838;2022-11-25T10:12:18;9.57;;;4.85;;
39370;SDS011;25099;51.946;4.838;2022-11-25T10:14:53;10.32;;;5.07;;
39370;SDS011;25099;51.946;4.838;2022-11-25T10:17:45;13.55;;;5.63;;
39370;SDS011;25099;51.946;4.838;2022-11-25T10:22:47;12.85;;;5.80;;
39370;SDS011;25099;51.946;4.838;2022-11-25T10:25:16;11.88;;;5.38;;
39370;SDS011;25099;51.946;4.838;2022-11-25T10:30:25;14.45;;;5.03;;
39370;SDS011;25099;51.946;4.838;2022-11-25T10:32:52;13.13;;;4.57;;
39370;SDS011;25099;51.946;4.838;2022-11-25T10:35:34;14.48;;;4.13;;
39370;SDS011;25099;51.946;4.838;2022-11-25T10:38:10;9.60;;;4.50;;
39370;SDS011;25099;51.946;4.838;2022-11-25T10:40:43;11.93;;;5.15;;
39370;SDS011;25099;51.946;4.838;2022-11-25T10:43:11;12.98;;;4.25;;
39370;SDS011;25099;51.946;4.838;2022-11-25T10:45:44;7.82;;;3.28;;
39370;SDS011;25099;51.946;4.838;2022-11-25T10:48:18;13.82;;;4.35;;
39370;SDS011;25099;51.946;4.838;2022-11-25T10:53:36;12.65;;;2.97;;
39370;SDS011;25099;51.946;4.838;2022-11-25T10:56:03;10.68;;;3.25;;
39370;SDS011;25099;51.946;4.838;2022-11-25T10:58:35;11.63;;;2.97;;
39370;SDS011;25099;51.946;4.838;2022-11-25T11:04:05;9.70;;;2.38;;
39370;SDS011;25099;51.946;4.838;2022-11-25T11:06:39;11.60;;;2.75;;
39370;SDS011;25099;51.946;4.838;2022-11-25T11:11:55;9.48;;;2.55;;
39370;SDS011;25099;51.946;4.838;2022-11-25T11:14:21;8.35;;;2.00;;
39370;SDS011;25099;51.946;4.838;2022-11-25T11:16:50;5.43;;;2.15;;
39370;SDS011;25099;51.946;4.838;2022-11-25T11:19:22;12.45;;;2.53;;
39370;SDS011;25099;51.946;4.838;2022-11-25T11:21:50;8.98;;;2.65;;
39370;SDS011;25099;51.946;4.838;2022-11-25T11:24:24;5.63;;;2.13;;
39370;SDS011;25099;51.946;4.838;2022-11-25T11:29:27;13.63;;;2.35;;
39370;SDS011;25099;51.946;4.838;2022-11-25T11:31:56;11.43;;;1.80;;
39370;SDS011;25099;51.946;4.838;2022-11-25T11:34:29;8.10;;;1.95;;
39370;SDS011;25099;51.946;4.838;2022-11-25T11:42:30;12.88;;;1.75;;
39370;SDS011;25099;51.946;4.838;2022-11-25T12:01:45;7.75;;;2.22;;
39370;SDS011;25099;51.946;4.838;2022-11-25T12:04:37;8.50;;;1.65;;
39370;SDS011;25099;51.946;4.838;2022-11-25T12:07:09;10.85;;;1.90;;
39370;SDS011;25099;51.946;4.838;2022-11-25T12:09:56;11.25;;;2.45;;
39370;SDS011;25099;51.946;4.838;2022-11-25T12:12:47;12.43;;;2.42;;
39370;SDS011;25099;51.946;4.838;2022-11-25T12:15:19;12.85;;;1.80;;
39370;SDS011;25099;51.946;4.838;2022-11-25T12:18:01;14.73;;;2.30;;
39370;SDS011;25099;51.946;4.838;2022-11-25T12:20:45;14.52;;;2.53;;
39370;SDS011;25099;51.946;4.838;2022-11-25T12:23:28;11.57;;;2.67;;
39370;SDS011;25099;51.946;4.838;2022-11-25T12:25:57;10.57;;;2.45;;
39370;SDS011;25099;51.946;4.838;2022-11-25T12:28:34;16.52;;;2.05;;
39370;SDS011;25099;51.946;4.838;2022-11-25T12:31:30;13.63;;;2.28;;
39370;SDS011;25099;51.946;4.838;2022-11-25T12:36:55;14.18;;;2.67;;
39370;SDS011;25099;51.946;4.838;2022-11-25T12:39:46;11.15;;;2.50;;
39370;SDS011;25099;51.946;4.838;2022-11-25T12:47:27;14.55;;;3.65;;
39370;SDS011;25099;51.946;4.838;2022-11-25T12:49:54;10.90;;;2.55;;
39370;SDS011;25099;51.946;4.838;2022-11-25T12:55:22;12.60;;;3.17;;
39370;SDS011;25099;51.946;4.838;2022-11-25T13:09:11;17.63;;;2.80;;
39370;SDS011;25099;51.946;4.838;2022-11-25T13:17:44;11.63;;;3.08;;
39370;SDS011;25099;51.946;4.838;2022-11-25T13:23:00;11.50;;;2.80;;
39370;SDS011;25099;51.946;4.838;2022-11-25T13:25:29;10.10;;;3.00;;
39370;SDS011;25099;51.946;4.838;2022-11-25T13:28:03;11.25;;;2.47;;
39370;SDS011;25099;51.946;4.838;2022-11-25T13:32:55;20.48;;;2.70;;
39370;SDS011;25099;51.946;4.838;2022-11-25T13:35:30;19.17;;;3.17;;
39370;SDS011;25099;51.946;4.838;2022-11-25T13:37:58;20.67;;;3.67;;
39370;SDS011;25099;51.946;4.838;2022-11-25T13:42:54;16.15;;;3.15;;
39370;SDS011;25099;51.946;4.838;2022-11-25T13:45:25;16.30;;;2.80;;
39370;SDS011;25099;51.946;4.838;2022-11-25T13:51:17;10.93;;;2.80;;
39370;SDS011;25099;51.946;4.838;2022-11-25T13:54:20;19.40;;;3.47;;
39370;SDS011;25099;51.946;4.838;2022-11-25T13:56:42;14.25;;;3.13;;
39370;SDS011;25099;51.946;4.838;2022-11-25T14:01:37;18.92;;;3.20;;
39370;SDS011;25099;51.946;4.838;2022-11-25T14:04:16;21.97;;;3.70;;
39370;SDS011;25099;51.946;4.838;2022-11-25T14:15:23;16.63;;;4.45;;
39370;SDS011;25099;51.946;4.838;2022-11-25T14:20:38;17.05;;;2.97;;
39370;SDS011;25099;51.946;4.838;2022-11-25T14:25:53;17.08;;;3.60;;
39370;SDS011;25099;51.946;4.838;2022-11-25T14:30:56;19.20;;;3.63;;
39370;SDS011;25099;51.946;4.838;2022-11-25T14:33:30;14.77;;;3.38;;
39370;SDS011;25099;51.946;4.838;2022-11-25T14:36:10;26.33;;;5.22;;
39370;SDS011;25099;51.946;4.838;2022-11-25T14:41:18;27.70;;;5.18;;
39370;SDS011;25099;51.946;4.838;2022-11-25T14:43:55;20.75;;;4.22;;
39370;SDS011;25099;51.946;4.838;2022-11-25T14:46:24;21.70;;;4.40;;
39370;SDS011;25099;51.946;4.838;2022-11-25T14:48:54;16.52;;;3.05;;
39370;SDS011;25099;51.946;4.838;2022-11-25T14:51:22;23.95;;;4.43;;
39370;SDS011;25099;51.946;4.838;2022-11-25T14:53:50;22.38;;;3.70;;
39370;SDS011;25099;51.946;4.838;2022-11-25T14:56:28;19.67;;;3.83;;
39370;SDS011;25099;51.946;4.838;2022-11-25T15:01:30;16.48;;;3.72;;
39370;SDS011;25099;51.946;4.838;2022-11-25T15:04:00;23.67;;;3.92;;
39370;SDS011;25099;51.946;4.838;2022-11-25T15:06:33;26.05;;;8.45;;
39370;SDS011;25099;51.946;4.838;2022-11-25T15:09:14;16.85;;;4.90;;
39370;SDS011;25099;51.946;4.838;2022-11-25T15:11:57;20.88;;;3.60;;
39370;SDS011;25099;51.946;4.838;2022-11-25T15:14:29;20.27;;;3.90;;
39370;SDS011;25099;51.946;4.838;2022-11-25T15:17:05;19.27;;;3.50;;
39370;SDS011;25099;51.946;4.838;2022-11-25T15:19:33;13.40;;;3.22;;
39370;SDS011;25099;51.946;4.838;2022-11-25T15:22:01;15.45;;;3.35;;
39370;SDS011;25099;51.946;4.838;2022-11-25T15:24:39;12.98;;;2.20;;
39370;SDS011;25099;51.946;4.838;2022-11-25T15:27:12;12.00;;;3.53;;
39370;SDS011;25099;51.946;4.838;2022-11-25T15:29:41;15.57;;;2.70;;
39370;SDS011;25099;51.946;4.838;2022-11-25T15:32:08;18.33;;;3.15;;
39370;SDS011;25099;51.946;4.838;2022-11-25T15:34:40;19.45;;;3.95;;
39370;SDS011;25099;51.946;4.838;2022-11-25T15:37:09;14.45;;;2.42;;
39370;SDS011;25099;51.946;4.838;2022-11-25T15:39:35;11.82;;;2.40;;
39370;SDS011;25099;51.946;4.838;2022-11-25T15:42:13;16.45;;;2.30;;
39370;SDS011;25099;51.946;4.838;2022-11-25T15:44:48;18.90;;;2.70;;
39370;SDS011;25099;51.946;4.838;2022-11-25T15:47:30;16.90;;;3.15;;
39370;SDS011;25099;51.946;4.838;2022-11-25T15:52:30;14.82;;;2.28;;
39370;SDS011;25099;51.946;4.838;2022-11-25T15:55:02;13.10;;;2.40;;
39370;SDS011;25099;51.946;4.838;2022-11-25T15:57:35;10.35;;;2.45;;
39370;SDS011;25099;51.946;4.838;2022-11-25T16:13:13;13.85;;;2.85;;
39370;SDS011;25099;51.946;4.838;2022-11-25T16:23:44;10.88;;;2.78;;
39370;SDS011;25099;51.946;4.838;2022-11-25T16:26:15;12.15;;;3.08;;
39370;SDS011;25099;51.946;4.838;2022-11-25T16:28:51;13.60;;;3.97;;
39370;SDS011;25099;51.946;4.838;2022-11-25T16:31:19;12.73;;;3.53;;
39370;SDS011;25099;51.946;4.838;2022-11-25T16:33:49;9.98;;;3.25;;
39370;SDS011;25099;51.946;4.838;2022-11-25T16:36:33;19.58;;;4.03;;
39370;SDS011;25099;51.946;4.838;2022-11-25T16:38:59;13.75;;;3.83;;
39370;SDS011;25099;51.946;4.838;2022-11-25T16:41:24;16.40;;;4.50;;
39370;SDS011;25099;51.946;4.838;2022-11-25T16:43:51;22.20;;;4.63;;
39370;SDS011;25099;51.946;4.838;2022-11-25T16:46:18;15.50;;;4.13;;
39370;SDS011;25099;51.946;4.838;2022-11-25T16:48:44;17.60;;;4.38;;
39370;SDS011;25099;51.946;4.838;2022-11-25T16:51:21;15.02;;;4.30;;
39370;SDS011;25099;51.946;4.838;2022-11-25T16:53:50;27.63;;;4.43;;
39370;SDS011;25099;51.946;4.838;2022-11-25T16:56:21;15.43;;;4.00;;
39370;SDS011;25099;51.946;4.838;2022-11-25T16:58:50;13.65;;;3.83;;
39370;SDS011;25099;51.946;4.838;2022-11-25T17:01:16;18.52;;;5.22;;
39370;SDS011;25099;51.946;4.838;2022-11-25T17:03:43;17.65;;;5.15;;
39370;SDS011;25099;51.946;4.838;2022-11-25T17:06:19;31.45;;;6.43;;
39370;SDS011;25099;51.946;4.838;2022-11-25T17:08:46;14.65;;;5.80;;
39370;SDS011;25099;51.946;4.838;2022-11-25T17:11:12;17.23;;;4.68;;
39370;SDS011;25099;51.946;4.838;2022-11-25T17:13:45;17.00;;;4.57;;
39370;SDS011;25099;51.946;4.838;2022-11-25T17:16:15;19.20;;;5.82;;